Time;durP1;ratioP1;P1;durP2;ratioP2;P2;SDS_P1;SDS_P2;PMS_P1;PMS_P2;Temp;Humidity;BMP_temperature;BMP_pressure;BME280_temperature;BME280_humidity;BME280_pressure;Samples;Min_cycle;Max_cycle;Signal;HPM_P1;HPM_P2
2023/08/19 00:01:56;;;;;;;8.27;7.40;;;25.10;99.90;;;;;;6185198;23;19997;-74
2023/08/19 00:04:22;;;;;;;7.40;6.80;;;25.10;99.90;;;;;;6183253;23;20009;-75
2023/08/19 00:06:48;;;;;;;7.82;7.22;;;25.10;99.90;;;;;;6185021;23;20009;-75
2023/08/19 00:09:13;;;;;;;8.32;7.53;;;25.00;99.90;;;;;;6184917;23;20451;-74
2023/08/19 00:11:39;;;;;;;7.63;7.07;;;25.00;99.90;;;;;;6183325;23;20020;-75
2023/08/19 00:14:06;;;;;;;7.55;6.93;;;25.10;99.90;;;;;;6184643;23;20068;-75
2023/08/19 00:16:33;;;;;;;8.73;7.63;;;25.10;99.90;;;;;;6184850;23;19997;-74
2023/08/19 00:18:59;;;;;;;7.28;6.78;;;25.10;99.90;;;;;;6185143;23;20008;-75
2023/08/19 00:21:25;;;;;;;8.20;7.40;;;25.00;99.90;;;;;;6184495;23;19997;-75
2023/08/19 00:23:50;;;;;;;8.20;7.40;;;25.00;99.90;;;;;;6185026;23;20072;-74
2023/08/19 00:26:17;;;;;;;7.78;7.05;;;25.00;99.90;;;;;;6184645;23;20004;-75
2023/08/19 00:28:43;;;;;;;7.72;7.10;;;25.00;99.90;;;;;;6184956;23;20008;-75
2023/08/19 00:31:09;;;;;;;8.07;7.25;;;25.00;99.90;;;;;;6184396;23;20076;-75
2023/08/19 00:33:35;;;;;;;8.25;7.55;;;25.00;99.90;;;;;;6185005;23;20044;-75
2023/08/19 00:36:02;;;;;;;8.38;7.22;;;25.00;99.90;;;;;;6184458;23;20004;-75
2023/08/19 00:38:28;;;;;;;7.80;7.20;;;25.00;99.90;;;;;;6183330;23;20472;-75
2023/08/19 00:40:55;;;;;;;9.05;6.82;;;24.90;99.90;;;;;;6182949;23;20005;-75
2023/08/19 00:43:20;;;;;;;8.35;7.75;;;24.90;99.90;;;;;;6182921;23;20500;-76
2023/08/19 00:45:48;;;;;;;10.90;7.05;;;24.90;99.90;;;;;;6182492;23;20004;-75
2023/08/19 00:48:15;;;;;;;8.40;7.13;;;24.80;99.90;;;;;;6184835;23;20032;-75
2023/08/19 00:50:42;;;;;;;8.23;7.35;;;24.80;99.90;;;;;;6182883;23;20013;-75
2023/08/19 00:53:09;;;;;;;7.70;7.07;;;24.90;99.90;;;;;;6182932;23;20016;-75
2023/08/19 00:55:36;;;;;;;9.02;7.25;;;24.80;99.90;;;;;;6184274;23;20016;-75
2023/08/19 00:58:03;;;;;;;7.80;7.10;;;24.80;99.90;;;;;;6184633;23;20001;-75
2023/08/19 01:00:32;;;;;;;8.55;7.93;;;24.80;99.90;;;;;;6182620;23;20011;-75
2023/08/19 01:03:04;;;;;;;9.15;7.28;;;24.80;99.90;;;;;;6184532;23;20452;-75
2023/08/19 01:05:40;;;;;;;7.82;7.22;;;24.70;99.90;;;;;;6182410;23;20092;-75
2023/08/19 01:08:11;;;;;;;8.85;8.00;;;24.70;99.90;;;;;;6184524;23;20008;-74
2023/08/19 01:10:48;;;;;;;8.23;7.47;;;24.70;99.90;;;;;;6182749;23;20068;-74
2023/08/19 01:13:16;;;;;;;7.82;7.13;;;24.80;99.90;;;;;;6184593;23;20032;-75
2023/08/19 01:15:53;;;;;;;8.50;7.80;;;24.70;99.90;;;;;;6183873;23;20556;-74
2023/08/19 01:18:19;;;;;;;8.73;7.20;;;24.80;99.90;;;;;;6182913;23;20093;-75
2023/08/19 01:20:46;;;;;;;8.88;8.20;;;24.80;99.90;;;;;;6183995;23;20001;-75
2023/08/19 01:23:23;;;;;;;8.68;7.80;;;24.70;99.90;;;;;;6182977;23;21259;-74
2023/08/19 01:25:49;;;;;;;9.18;8.20;;;24.70;99.90;;;;;;6183985;23;20025;-74
2023/08/19 01:28:17;;;;;;;10.13;7.50;;;24.70;99.90;;;;;;6182786;23;20306;-74
2023/08/19 01:30:44;;;;;;;8.90;8.10;;;24.70;99.90;;;;;;6183971;23;20476;-74
2023/08/19 01:33:09;;;;;;;8.38;7.68;;;24.70;99.90;;;;;;6184370;23;20001;-74
2023/08/19 01:36:05;;;;;;;9.40;8.50;;;24.70;99.90;;;;;;6183569;23;20008;-75
2023/08/19 01:38:43;;;;;;;9.35;7.88;;;24.70;99.90;;;;;;6184377;23;20161;-75
2023/08/19 01:41:10;;;;;;;9.27;8.50;;;24.70;99.90;;;;;;6183984;23;20001;-75
2023/08/19 01:43:37;;;;;;;9.68;8.70;;;24.70;99.90;;;;;;6183972;23;19997;-75
2023/08/19 01:46:03;;;;;;;10.23;7.93;;;24.70;99.90;;;;;;6183572;23;20479;-74
2023/08/19 01:48:28;;;;;;;11.23;8.73;;;24.60;99.90;;;;;;6183889;23;20005;-75
2023/08/19 01:50:54;;;;;;;8.75;7.97;;;24.60;99.90;;;;;;6184001;23;20016;-74
2023/08/19 01:53:20;;;;;;;9.20;8.48;;;24.60;99.90;;;;;;6184038;23;20001;-75
2023/08/19 01:55:45;;;;;;;8.98;8.13;;;24.60;99.90;;;;;;6183705;23;20005;-74
2023/08/19 01:58:11;;;;;;;9.40;8.30;;;24.60;99.90;;;;;;6183717;23;20001;-75
2023/08/19 02:00:40;;;;;;;8.90;8.00;;;24.60;99.90;;;;;;6183511;23;20012;-75
2023/08/19 02:03:07;;;;;;;10.95;8.45;;;24.70;99.90;;;;;;6184070;23;20001;-74
2023/08/19 02:05:32;;;;;;;10.52;9.15;;;24.70;99.90;;;;;;6183586;23;20011;-74
2023/08/19 02:07:58;;;;;;;10.68;8.63;;;24.70;99.90;;;;;;6183962;23;20456;-75
2023/08/19 02:10:24;;;;;;;10.05;9.02;;;24.70;99.90;;;;;;6183560;23;20224;-74
2023/08/19 02:12:49;;;;;;;9.73;8.77;;;24.70;99.90;;;;;;6183877;23;20437;-75
2023/08/19 02:15:15;;;;;;;12.27;8.80;;;24.80;99.90;;;;;;6181859;23;20056;-75
2023/08/19 02:17:41;;;;;;;8.80;8.10;;;24.70;99.90;;;;;;6182223;23;20012;-74
2023/08/19 02:20:07;;;;;;;10.45;8.18;;;24.70;99.90;;;;;;6183641;23;20361;-75
2023/08/19 02:22:32;;;;;;;9.07;8.38;;;24.70;99.90;;;;;;6183651;23;20001;-75
2023/08/19 02:24:58;;;;;;;9.93;9.13;;;24.60;99.90;;;;;;6183566;23;19993;-74
2023/08/19 02:27:25;;;;;;;9.85;8.95;;;24.60;99.90;;;;;;6182015;23;20432;-75
2023/08/19 02:29:51;;;;;;;9.60;8.70;;;24.60;99.90;;;;;;6183406;23;20001;-75
2023/08/19 02:32:16;;;;;;;10.88;9.50;;;24.60;99.90;;;;;;6183535;23;20005;-75
2023/08/19 02:34:42;;;;;;;9.55;8.70;;;24.60;99.90;;;;;;6183444;23;20088;-74
2023/08/19 02:37:09;;;;;;;10.18;9.23;;;24.60;99.90;;;;;;6183695;23;20331;-75
2023/08/19 02:39:34;;;;;;;10.40;9.35;;;24.50;99.90;;;;;;6181901;23;20507;-75
2023/08/19 02:42:00;;;;;;;10.07;9.07;;;24.60;99.90;;;;;;6183625;23;19997;-74
2023/08/19 02:44:26;;;;;;;9.57;8.70;;;24.50;99.90;;;;;;6183267;23;20005;-74
2023/08/19 02:46:52;;;;;;;10.18;9.38;;;24.60;99.90;;;;;;6183263;23;20004;-74
2023/08/19 02:49:17;;;;;;;10.45;9.40;;;24.50;99.90;;;;;;6183495;23;20088;-75
2023/08/19 02:51:43;;;;;;;9.48;8.70;;;24.50;99.90;;;;;;6183361;23;20078;-75
2023/08/19 02:54:10;;;;;;;10.23;9.15;;;24.50;99.90;;;;;;6183447;23;20016;-75
2023/08/19 02:56:36;;;;;;;9.77;8.90;;;24.40;99.90;;;;;;6183329;23;20001;-75
2023/08/19 02:59:02;;;;;;;13.10;9.73;;;24.40;99.90;;;;;;6183527;23;20080;-74
2023/08/19 03:01:27;;;;;;;10.13;9.23;;;24.30;99.90;;;;;;6183303;23;20048;-75
2023/08/19 03:03:53;;;;;;;10.02;9.00;;;24.30;99.90;;;;;;6183542;23;20001;-74
2023/08/19 03:06:19;;;;;;;10.45;9.55;;;24.30;99.90;;;;;;6182831;23;20129;-75
2023/08/19 03:08:44;;;;;;;10.38;9.40;;;24.30;99.90;;;;;;6183570;23;20054;-74
2023/08/19 03:11:10;;;;;;;10.32;9.05;;;24.30;99.90;;;;;;6183075;23;20024;-75
2023/08/19 03:13:36;;;;;;;10.95;9.07;;;24.20;99.90;;;;;;6183560;23;20080;-74
2023/08/19 03:16:02;;;;;;;12.40;9.45;;;24.20;99.90;;;;;;6181403;23;20001;-75
2023/08/19 03:18:28;;;;;;;11.27;10.18;;;24.10;99.90;;;;;;6181819;23;20013;-74
2023/08/19 03:20:56;;;;;;;9.60;8.73;;;24.10;99.90;;;;;;6181429;23;20035;-74
2023/08/19 03:23:22;;;;;;;10.77;9.70;;;24.10;99.90;;;;;;6181843;23;20084;-75
2023/08/19 03:25:50;;;;;;;10.32;9.15;;;24.20;99.90;;;;;;6181446;23;20043;-75
2023/08/19 03:28:16;;;;;;;10.30;9.40;;;24.20;99.90;;;;;;6181721;23;20009;-75
2023/08/19 03:30:42;;;;;;;10.50;9.55;;;24.20;99.90;;;;;;6182921;23;20544;-75
2023/08/19 03:33:07;;;;;;;10.98;9.60;;;24.20;99.90;;;;;;6183429;23;20032;-75
2023/08/19 03:35:36;;;;;;;12.55;10.70;;;24.20;99.90;;;;;;6182831;23;20016;-75
2023/08/19 03:38:02;;;;;;;10.52;9.45;;;24.20;99.90;;;;;;6181785;23;20009;-75
2023/08/19 03:40:28;;;;;;;10.82;9.73;;;24.10;99.90;;;;;;6183025;23;20511;-75
2023/08/19 03:42:54;;;;;;;13.48;9.25;;;24.20;99.90;;;;;;6183348;23;19997;-75
2023/08/19 03:45:19;;;;;;;10.30;9.40;;;24.20;99.90;;;;;;6182391;23;20032;-75
2023/08/19 03:47:45;;;;;;;20.58;9.85;;;24.10;99.90;;;;;;6183307;23;20001;-75
2023/08/19 03:50:11;;;;;;;13.75;10.07;;;24.20;99.90;;;;;;6182778;23;20429;-75
2023/08/19 03:52:37;;;;;;;10.65;9.70;;;24.20;99.90;;;;;;6182949;23;20013;-75
2023/08/19 03:55:02;;;;;;;10.32;9.45;;;24.20;99.90;;;;;;6181140;23;20014;-74
2023/08/19 03:57:28;;;;;;;9.82;8.95;;;24.20;99.90;;;;;;6183155;23;20096;-74
2023/08/19 03:59:54;;;;;;;10.02;9.10;;;24.20;99.90;;;;;;6182758;23;19997;-75
2023/08/19 04:02:20;;;;;;;10.32;9.43;;;24.20;99.90;;;;;;6181550;23;20009;-75
2023/08/19 04:05:05;;;;;;;11.18;10.02;;;24.20;99.90;;;;;;6182909;23;20001;-75
2023/08/19 04:07:31;;;;;;;12.60;9.52;;;24.20;99.90;;;;;;6183047;23;20056;-75
2023/08/19 04:09:57;;;;;;;10.90;9.85;;;24.20;99.90;;;;;;6182857;23;20009;-75
2023/08/19 04:12:23;;;;;;;12.05;9.65;;;24.10;99.90;;;;;;6183196;23;20441;-75
2023/08/19 04:14:49;;;;;;;11.13;9.30;;;24.20;99.90;;;;;;6182654;23;20029;-75
2023/08/19 04:17:16;;;;;;;10.75;9.85;;;24.20;99.90;;;;;;6183015;23;19997;-75
2023/08/19 04:19:41;;;;;;;13.93;10.10;;;24.10;99.90;;;;;;6181287;23;20009;-75
2023/08/19 04:22:07;;;;;;;10.32;9.38;;;24.10;99.90;;;;;;6184435;23;20329;-74
2023/08/19 04:24:33;;;;;;;10.25;9.45;;;24.10;99.90;;;;;;6184773;23;20001;-75
2023/08/19 04:27:02;;;;;;;10.25;8.80;;;24.00;99.90;;;;;;6184873;23;20012;-75
2023/08/19 04:29:28;;;;;;;12.13;10.00;;;24.00;99.90;;;;;;6184681;23;20012;-74
2023/08/19 04:31:54;;;;;;;10.13;9.23;;;24.00;99.90;;;;;;6184925;23;20341;-75
2023/08/19 04:34:20;;;;;;;11.52;10.43;;;24.00;99.90;;;;;;6184563;23;20007;-75
2023/08/19 04:36:46;;;;;;;10.70;9.50;;;24.00;99.90;;;;;;6183042;23;20005;-74
2023/08/19 04:39:12;;;;;;;10.77;9.73;;;24.00;99.90;;;;;;6184638;23;20024;-75
2023/08/19 04:41:38;;;;;;;11.77;10.13;;;24.00;99.90;;;;;;6184556;23;20459;-75
2023/08/19 04:44:05;;;;;;;13.43;10.75;;;24.10;99.90;;;;;;6184616;23;20036;-75
2023/08/19 04:46:31;;;;;;;13.68;10.23;;;24.10;99.90;;;;;;6184327;23;20317;-75
2023/08/19 04:48:56;;;;;;;10.95;9.90;;;24.10;99.90;;;;;;6183218;23;20009;-75
2023/08/19 04:51:25;;;;;;;10.98;9.50;;;24.10;99.90;;;;;;6184256;23;20012;-75
2023/08/19 04:53:52;;;;;;;11.52;9.40;;;24.10;99.90;;;;;;6184485;23;20087;-74
2023/08/19 04:56:18;;;;;;;10.27;9.20;;;24.10;99.90;;;;;;6182646;23;20433;-74
2023/08/19 04:58:43;;;;;;;10.57;9.40;;;24.10;99.90;;;;;;6184538;23;20021;-75
2023/08/19 05:01:09;;;;;;;12.35;9.20;;;24.10;99.90;;;;;;6184211;23;20333;-75
2023/08/19 05:03:35;;;;;;;10.70;9.77;;;24.10;99.90;;;;;;6183030;23;20426;-75
2023/08/19 05:06:00;;;;;;;10.68;9.65;;;24.00;99.90;;;;;;6182508;23;20332;-75
2023/08/19 05:08:26;;;;;;;12.95;9.23;;;24.10;99.90;;;;;;6184475;23;20009;-74
2023/08/19 05:10:52;;;;;;;10.20;8.77;;;24.00;99.90;;;;;;6184212;23;20001;-75
2023/08/19 05:13:18;;;;;;;10.35;9.52;;;24.10;99.90;;;;;;6184308;23;20005;-75
2023/08/19 05:15:44;;;;;;;9.38;8.57;;;24.00;99.90;;;;;;6183842;23;20005;-75
2023/08/19 05:18:09;;;;;;;13.38;9.88;;;24.00;99.90;;;;;;6182895;23;20451;-75
2023/08/19 05:20:35;;;;;;;10.50;9.52;;;24.00;99.90;;;;;;6182427;23;20047;-75
2023/08/19 05:23:01;;;;;;;10.20;9.40;;;24.10;99.90;;;;;;6184336;23;20001;-74
2023/08/19 05:25:29;;;;;;;10.80;9.75;;;24.20;99.90;;;;;;6184081;23;20001;-75
2023/08/19 05:27:56;;;;;;;11.13;8.77;;;24.20;99.90;;;;;;6182806;23;20009;-74
2023/08/19 05:30:22;;;;;;;9.68;8.77;;;24.30;99.90;;;;;;6183909;23;20004;-75
2023/08/19 05:32:48;;;;;;;10.02;9.07;;;24.30;99.90;;;;;;6183704;23;20027;-74
2023/08/19 05:35:14;;;;;;;10.00;8.70;;;24.40;99.90;;;;;;6183773;23;20048;-74
2023/08/19 05:37:39;;;;;;;13.68;8.73;;;24.40;99.90;;;;;;6184436;23;20488;-75
2023/08/19 05:40:06;;;;;;;10.15;9.07;;;24.40;99.90;;;;;;6182471;23;20009;-74
2023/08/19 05:42:32;;;;;;;10.65;9.65;;;24.50;99.90;;;;;;6183888;23;19998;-74
2023/08/19 05:44:57;;;;;;;10.25;9.23;;;24.60;99.90;;;;;;6183714;23;20008;-75
2023/08/19 05:47:23;;;;;;;9.98;9.15;;;24.60;99.90;;;;;;6183943;23;20345;-74
2023/08/19 05:49:49;;;;;;;10.82;9.15;;;24.60;99.90;;;;;;6183878;23;20440;-75
2023/08/19 05:52:14;;;;;;;10.90;9.77;;;24.60;99.90;;;;;;6183959;23;20024;-74
2023/08/19 05:54:40;;;;;;;12.75;9.20;;;24.60;99.90;;;;;;6183726;23;20311;-74
2023/08/19 05:57:06;;;;;;;10.23;9.18;;;24.70;99.90;;;;;;6182295;23;20020;-75
2023/08/19 05:59:32;;;;;;;11.38;10.05;;;24.80;99.90;;;;;;6183593;23;20033;-74
2023/08/19 06:02:01;;;;;;;10.70;9.57;;;24.80;99.90;;;;;;6183734;23;20421;-75
2023/08/19 06:04:27;;;;;;;9.32;8.45;;;24.80;99.90;;;;;;6183540;23;20009;-74
2023/08/19 06:06:52;;;;;;;14.70;9.73;;;24.90;99.90;;;;;;6182155;23;20468;-75
2023/08/19 06:09:18;;;;;;;11.57;8.60;;;25.00;99.90;;;;;;6183873;23;20063;-74
2023/08/19 06:11:51;;;;;;;9.57;8.68;;;25.00;99.90;;;;;;6183921;23;20004;-74
2023/08/19 06:14:17;;;;;;;11.52;9.85;;;25.10;99.90;;;;;;6183553;23;20007;-75
2023/08/19 06:16:44;;;;;;;13.75;9.77;;;25.20;99.90;;;;;;6183385;23;20326;-75
2023/08/19 06:19:10;;;;;;;11.65;9.55;;;25.30;99.90;;;;;;6183673;23;19997;-75
2023/08/19 06:21:36;;;;;;;10.05;8.98;;;25.30;99.90;;;;;;6183790;23;20000;-75
2023/08/19 06:24:01;;;;;;;10.50;9.48;;;25.40;99.90;;;;;;6183827;23;19997;-75
2023/08/19 06:26:27;;;;;;;9.40;8.55;;;25.40;99.90;;;;;;6183404;23;20285;-74
2023/08/19 06:28:53;;;;;;;11.68;9.27;;;25.50;99.90;;;;;;6182321;23;20054;-74
2023/08/19 06:31:19;;;;;;;10.90;10.00;;;25.50;99.90;;;;;;6183202;23;20001;-75
2023/08/19 06:33:45;;;;;;;11.60;8.85;;;25.60;99.90;;;;;;6183610;23;20100;-74
2023/08/19 06:36:14;;;;;;;9.05;8.15;;;25.60;99.90;;;;;;6181625;23;20245;-74
2023/08/19 06:38:46;;;;;;;16.40;8.73;;;25.60;99.90;;;;;;6183711;23;20005;-74
2023/08/19 06:41:11;;;;;;;;;;;25.60;99.90;;;;;;6183753;23;20007;-74
2023/08/19 06:43:38;;;;;;;12.30;9.35;;;25.70;99.90;;;;;;6183563;23;19900;-75
2023/08/19 06:46:05;;;;;;;9.90;8.90;;;25.70;99.90;;;;;;6183039;23;20031;-75
2023/08/19 06:48:32;;;;;;;9.45;8.60;;;25.80;99.90;;;;;;6181008;23;20384;-75
2023/08/19 06:50:59;;;;;;;9.30;8.40;;;25.80;99.90;;;;;;6182450;23;20459;-74
2023/08/19 06:53:25;;;;;;;12.48;9.07;;;25.90;99.90;;;;;;6181732;23;20100;-74
2023/08/19 06:56:10;;;;;;;12.63;10.25;;;25.90;99.90;;;;;;6180943;23;20032;-74
2023/08/19 06:58:49;;;;;;;15.98;9.65;;;26.00;99.90;;;;;;6181532;23;20005;-74
2023/08/19 07:01:22;;;;;;;12.07;10.80;;;26.00;99.90;;;;;;6181296;23;20096;-74
2023/08/19 07:03:50;;;;;;;11.02;9.82;;;26.10;99.90;;;;;;6182222;23;20491;-74
2023/08/19 07:06:19;;;;;;;12.98;9.68;;;26.20;99.90;;;;;;6180560;23;20151;-74
2023/08/19 07:08:45;;;;;;;11.80;9.90;;;26.20;99.90;;;;;;6178779;23;20345;-74
2023/08/19 07:11:11;;;;;;;10.38;9.57;;;26.20;99.90;;;;;;6178208;23;19997;-74
2023/08/19 07:13:37;;;;;;;11.32;10.23;;;26.20;99.90;;;;;;6178680;23;20373;-74
2023/08/19 07:16:04;;;;;;;11.43;10.40;;;26.30;99.90;;;;;;6180276;23;20001;-74
2023/08/19 07:18:51;;;;;;;13.20;10.80;;;26.30;99.90;;;;;;6182956;23;20029;-74
2023/08/19 07:21:20;;;;;;;13.38;9.35;;;26.40;99.90;;;;;;6180682;23;20009;-74
2023/08/19 07:23:48;;;;;;;11.02;9.93;;;26.40;99.90;;;;;;6179098;23;20005;-74
2023/08/19 07:26:15;;;;;;;12.88;9.93;;;26.40;99.90;;;;;;6181603;23;20008;-74
2023/08/19 07:28:41;;;;;;;10.65;9.50;;;26.50;99.90;;;;;;6180647;23;20375;-74
2023/08/19 07:31:10;;;;;;;12.27;10.98;;;26.50;99.90;;;;;;6180135;23;20001;-74
2023/08/19 07:33:36;;;;;;;11.02;10.02;;;26.50;99.90;;;;;;6181260;23;20004;-74
2023/08/19 07:36:03;;;;;;;12.02;10.05;;;26.50;99.90;;;;;;6179991;23;20001;-74
2023/08/19 07:38:29;;;;;;;11.13;10.13;;;26.60;99.90;;;;;;6183089;23;20516;-74
2023/08/19 07:40:55;;;;;;;11.13;9.95;;;26.60;99.90;;;;;;6178520;23;20341;-74
2023/08/19 07:43:21;;;;;;;11.35;10.15;;;26.60;99.90;;;;;;6183291;23;20001;-74
2023/08/19 07:45:47;;;;;;;15.23;9.60;;;26.60;99.90;;;;;;6181464;23;20028;-74
2023/08/19 07:48:12;;;;;;;11.55;9.82;;;26.70;99.90;;;;;;6181770;23;20039;-74
2023/08/19 07:50:38;;;;;;;10.55;9.50;;;26.70;99.90;;;;;;6181380;23;20511;-74
2023/08/19 07:53:04;;;;;;;12.23;10.52;;;26.70;99.90;;;;;;6180839;23;20017;-74
2023/08/19 07:55:29;;;;;;;12.55;10.60;;;26.70;99.90;;;;;;6182144;23;20009;-74
2023/08/19 07:57:55;;;;;;;17.88;10.05;;;26.80;99.90;;;;;;6183960;23;20067;-74
2023/08/19 08:00:23;;;;;;;14.05;10.35;;;26.80;99.90;;;;;;6181309;23;20437;-74
2023/08/19 08:02:49;;;;;;;14.15;10.30;;;26.80;99.90;;;;;;6182833;23;20044;-74
2023/08/19 08:05:15;;;;;;;11.02;9.98;;;26.90;99.90;;;;;;6184910;23;20009;-75
2023/08/19 08:07:47;;;;;;;11.15;9.70;;;26.90;99.90;;;;;;6185040;23;20143;-74
2023/08/19 08:10:13;;;;;;;12.75;9.18;;;26.90;99.90;;;;;;6179667;23;20500;-74
2023/08/19 08:12:39;;;;;;;12.55;9.63;;;27.00;99.90;;;;;;6181716;23;20008;-75
2023/08/19 08:15:05;;;;;;;16.77;10.55;;;27.00;99.90;;;;;;6180750;23;20495;-75
2023/08/19 08:17:31;;;;;;;12.60;10.48;;;27.10;99.90;;;;;;6180986;23;20015;-74
2023/08/19 08:19:59;;;;;;;10.25;9.35;;;27.10;99.90;;;;;;6180535;23;20001;-75
2023/08/19 08:22:25;;;;;;;10.55;8.98;;;27.10;99.90;;;;;;6180673;23;20031;-74
2023/08/19 08:24:51;;;;;;;11.30;9.43;;;27.10;99.90;;;;;;6180364;23;20001;-74
2023/08/19 08:27:17;;;;;;;9.55;8.65;;;27.20;99.90;;;;;;6181235;23;20392;-75
2023/08/19 08:29:42;;;;;;;11.90;9.20;;;27.20;99.90;;;;;;6182117;23;20001;-75
2023/08/19 08:32:09;;;;;;;9.93;9.05;;;27.30;99.90;;;;;;6183231;23;20091;-75
2023/08/19 08:34:35;;;;;;;9.70;8.68;;;27.30;99.90;;;;;;6183863;23;20380;-74
2023/08/19 08:37:04;;;;;;;11.50;8.80;;;27.30;99.90;;;;;;6184795;23;19997;-75
2023/08/19 08:39:32;;;;;;;9.52;8.55;;;27.40;99.90;;;;;;6184678;23;20008;-74
2023/08/19 08:41:59;;;;;;;9.85;8.88;;;27.40;99.90;;;;;;6184835;23;20326;-74
2023/08/19 08:44:33;;;;;;;9.70;8.90;;;27.40;99.90;;;;;;6184589;23;20012;-75
2023/08/19 08:47:00;;;;;;;9.85;8.85;;;27.50;99.90;;;;;;6184427;23;20004;-74
2023/08/19 08:49:27;;;;;;;11.05;8.77;;;27.40;99.90;;;;;;6184563;23;20063;-74
2023/08/19 08:51:54;;;;;;;14.32;9.20;;;27.50;99.90;;;;;;6184570;23;20016;-75
2023/08/19 08:54:21;;;;;;;9.48;8.57;;;27.50;99.90;;;;;;6184363;23;20287;-75
2023/08/19 08:56:47;;;;;;;9.55;8.70;;;27.50;99.90;;;;;;6184424;23;20055;-75
2023/08/19 08:59:13;;;;;;;8.98;8.32;;;27.70;99.90;;;;;;6184350;23;20001;-75
2023/08/19 09:01:43;;;;;;;9.25;8.32;;;27.70;99.90;;;;;;6184483;23;20377;-75
2023/08/19 09:04:13;;;;;;;10.13;8.18;;;27.80;99.90;;;;;;6182828;23;20200;-75
2023/08/19 09:06:42;;;;;;;8.80;8.07;;;27.80;99.90;;;;;;6182769;23;20063;-74
2023/08/19 09:09:12;;;;;;;12.38;8.43;;;27.80;99.90;;;;;;6182889;23;20038;-75
2023/08/19 09:11:41;;;;;;;12.88;9.25;;;27.90;99.90;;;;;;6182780;23;20476;-74
2023/08/19 09:14:10;;;;;;;9.77;8.77;;;28.00;99.90;;;;;;6184157;23;20001;-75
2023/08/19 09:16:36;;;;;;;8.70;8.00;;;28.00;99.90;;;;;;6184125;23;19997;-74
2023/08/19 09:19:02;;;;;;;10.18;9.07;;;28.10;99.90;;;;;;6184542;23;20072;-74
2023/08/19 09:21:28;;;;;;;10.80;9.27;;;28.30;99.90;;;;;;6184264;23;20032;-75
2023/08/19 09:23:53;;;;;;;8.95;8.23;;;28.30;99.90;;;;;;6184331;23;20497;-74
2023/08/19 09:26:19;;;;;;;10.68;8.45;;;28.50;99.90;;;;;;6183906;23;20059;-75
2023/08/19 09:28:45;;;;;;;10.57;8.70;;;28.50;99.90;;;;;;6184508;23;20137;-75
2023/08/19 09:31:24;;;;;;;9.93;8.18;;;28.60;99.90;;;;;;6183980;23;19997;-74
2023/08/19 09:33:54;;;;;;;9.20;8.40;;;28.60;99.90;;;;;;6184335;23;19997;-75
2023/08/19 09:36:23;;;;;;;9.13;8.32;;;28.60;99.90;;;;;;6183601;23;20425;-74
2023/08/19 09:38:56;;;;;;;9.02;8.13;;;28.70;99.90;;;;;;6184278;23;20028;-75
2023/08/19 09:41:27;;;;;;;8.48;7.57;;;28.70;99.90;;;;;;6182377;23;20005;-74
2023/08/19 09:43:54;;;;;;;16.90;8.38;;;28.70;99.90;;;;;;6184229;23;20025;-74
2023/08/19 09:46:20;;;;;;;10.38;8.20;;;28.80;99.90;;;;;;6181778;23;20005;-75
2023/08/19 09:48:54;;;;;;;7.82;7.18;;;28.80;99.90;;;;;;6184326;23;20388;-74
2023/08/19 09:51:28;;;;;;;11.85;7.82;;;28.90;99.90;;;;;;6183373;23;20001;-75
2023/08/19 09:53:57;;;;;;;10.93;7.82;;;28.90;99.90;;;;;;6183976;23;20016;-75
2023/08/19 09:56:26;;;;;;;8.10;7.38;;;28.90;99.90;;;;;;6183791;23;20005;-75
2023/08/19 09:58:56;;;;;;;11.15;7.55;;;29.00;99.90;;;;;;6184273;23;20009;-74
2023/08/19 10:01:25;;;;;;;9.82;6.93;;;29.10;99.90;;;;;;6183711;23;20337;-75
2023/08/19 10:03:51;;;;;;;9.35;8.27;;;29.20;99.90;;;;;;6184112;23;20002;-74
2023/08/19 10:06:24;;;;;;;11.88;7.97;;;29.20;99.90;;;;;;6183580;23;20004;-74
2023/08/19 10:08:57;;;;;;;11.18;7.82;;;29.20;99.90;;;;;;6184155;23;20025;-75
2023/08/19 10:11:24;;;;;;;10.55;7.97;;;29.30;99.90;;;;;;6183553;23;20024;-74
2023/08/19 10:13:52;;;;;;;9.23;7.70;;;29.40;99.90;;;;;;6183984;23;20005;-75
2023/08/19 10:16:21;;;;;;;13.60;7.85;;;29.30;99.90;;;;;;6183378;23;20001;-75
2023/08/19 10:18:47;;;;;;;11.20;8.95;;;29.40;99.90;;;;;;6183790;23;20001;-75
2023/08/19 10:21:15;;;;;;;12.07;8.43;;;29.40;99.90;;;;;;6183677;23;19997;-75
2023/08/19 10:23:44;;;;;;;11.75;7.75;;;29.40;99.90;;;;;;6184022;23;20016;-75
2023/08/19 10:26:10;;;;;;;9.43;8.40;;;29.50;99.90;;;;;;6183266;23;20032;-75
2023/08/19 10:28:36;;;;;;;9.70;8.35;;;29.50;99.90;;;;;;6183826;23;20362;-75
2023/08/19 10:31:13;;;;;;;9.57;8.75;;;29.50;99.90;;;;;;6183370;23;20008;-75
2023/08/19 10:33:44;;;;;;;9.52;8.52;;;29.60;99.90;;;;;;6183921;23;20005;-75
2023/08/19 10:36:17;;;;;;;8.63;7.72;;;29.60;99.90;;;;;;6181662;23;20005;-74
2023/08/19 10:39:00;;;;;;;10.80;8.43;;;29.60;99.90;;;;;;6182219;23;20001;-74
2023/08/19 10:41:33;;;;;;;9.77;7.95;;;29.60;99.90;;;;;;6183283;23;20425;-75
2023/08/19 10:44:03;;;;;;;9.27;8.48;;;29.60;99.90;;;;;;6183912;23;20047;-74
2023/08/19 10:46:40;;;;;;;9.18;8.40;;;29.70;99.90;;;;;;6181602;23;20005;-75
2023/08/19 10:49:19;;;;;;;9.13;8.20;;;29.80;99.90;;;;;;6183557;23;19997;-75
2023/08/19 10:52:03;;;;;;;9.18;8.35;;;29.90;99.90;;;;;;6183018;23;20009;-74
2023/08/19 10:54:43;;;;;;;14.80;8.35;;;30.10;99.90;;;;;;6183433;23;20099;-74
2023/08/19 10:57:22;;;;;;;9.93;8.48;;;30.10;99.90;;;;;;6183615;23;20009;-75
2023/08/19 10:59:53;;;;;;;11.68;8.18;;;30.20;99.90;;;;;;6183479;23;20028;-75
2023/08/19 11:02:19;;;;;;;9.77;9.00;;;30.30;99.90;;;;;;6183554;23;20004;-75
2023/08/19 11:04:48;;;;;;;12.82;8.75;;;30.30;99.90;;;;;;6183222;23;20333;-75
2023/08/19 11:07:17;;;;;;;9.65;8.85;;;30.30;99.90;;;;;;6183570;23;20008;-75
2023/08/19 11:09:47;;;;;;;12.85;9.10;;;30.50;99.90;;;;;;6181554;23;20155;-74
2023/08/19 11:12:18;;;;;;;11.35;9.52;;;30.60;99.90;;;;;;6183477;23;20008;-75
2023/08/19 11:14:52;;;;;;;10.43;9.40;;;30.60;99.90;;;;;;6183001;23;20001;-75
2023/08/19 11:17:26;;;;;;;10.32;9.07;;;30.60;99.90;;;;;;6183141;23;20001;-75
2023/08/19 11:19:51;;;;;;;10.63;9.68;;;30.60;99.90;;;;;;6183254;23;20001;-75
2023/08/19 11:22:17;;;;;;;10.20;9.40;;;30.50;99.90;;;;;;6183492;23;20477;-75
2023/08/19 11:24:43;;;;;;;12.05;9.15;;;30.60;99.90;;;;;;6183027;23;20345;-75
2023/08/19 11:27:09;;;;;;;10.98;9.50;;;30.70;99.90;;;;;;6183203;23;20009;-75
2023/08/19 11:29:38;;;;;;;10.50;9.57;;;30.70;99.90;;;;;;6183367;23;20001;-75
2023/08/19 11:32:05;;;;;;;14.32;9.32;;;30.80;99.90;;;;;;6184722;23;20009;-75
2023/08/19 11:34:30;;;;;;;11.88;9.98;;;30.80;99.90;;;;;;6184813;23;20009;-74
2023/08/19 11:36:57;;;;;;;15.38;9.15;;;31.00;99.90;;;;;;6185437;23;20447;-74
2023/08/19 11:39:22;;;;;;;10.70;9.65;;;31.00;99.90;;;;;;6185218;23;20456;-74
2023/08/19 11:41:48;;;;;;;9.65;8.65;;;31.00;99.90;;;;;;6185332;23;19997;-74
2023/08/19 11:44:14;;;;;;;10.23;9.23;;;31.10;99.90;;;;;;6184997;23;20008;-75
2023/08/19 11:46:40;;;;;;;14.52;9.30;;;31.10;99.90;;;;;;6184718;23;20059;-75
2023/08/19 11:49:10;;;;;;;12.57;9.25;;;31.20;99.90;;;;;;6185304;23;20001;-75
2023/08/19 11:51:37;;;;;;;10.60;9.60;;;31.20;99.90;;;;;;6183357;23;20464;-75
2023/08/19 11:54:08;;;;;;;10.35;9.30;;;31.30;99.90;;;;;;6183327;23;20055;-75
2023/08/19 11:56:50;;;;;;;12.23;9.48;;;31.30;99.90;;;;;;6185141;23;20047;-74
2023/08/19 11:59:17;;;;;;;12.25;8.88;;;31.20;99.90;;;;;;6185041;23;20048;-75
2023/08/19 12:01:45;;;;;;;10.15;9.23;;;31.20;99.90;;;;;;6185115;23;20455;-75
2023/08/19 12:04:15;;;;;;;10.10;8.88;;;31.30;99.90;;;;;;6185036;23;20001;-75
2023/08/19 12:06:42;;;;;;;10.40;9.35;;;31.40;99.90;;;;;;6184864;23;20144;-75
2023/08/19 12:09:08;;;;;;;15.88;9.52;;;31.50;99.90;;;;;;6183433;23;20028;-75
2023/08/19 12:11:35;;;;;;;10.25;8.85;;;31.60;99.90;;;;;;6185067;23;20001;-75
2023/08/19 12:14:05;;;;;;;13.43;9.98;;;31.70;99.90;;;;;;6185060;23;20001;-74
2023/08/19 12:16:31;;;;;;;11.77;8.70;;;31.70;99.90;;;;;;6184712;23;20495;-75
2023/08/19 12:18:59;;;;;;;11.05;9.82;;;31.80;99.90;;;;;;6185166;23;20001;-75
2023/08/19 12:21:26;;;;;;;10.10;9.25;;;31.90;99.90;;;;;;6184703;23;20503;-75
2023/08/19 12:23:52;;;;;;;9.48;8.65;;;31.90;99.90;;;;;;6185135;23;20088;-75
2023/08/19 12:26:18;;;;;;;11.95;8.80;;;31.90;99.90;;;;;;6184711;23;20040;-75
2023/08/19 12:28:43;;;;;;;12.45;9.75;;;32.10;99.90;;;;;;6185040;23;20306;-75
2023/08/19 12:31:09;;;;;;;16.45;8.88;;;32.10;99.90;;;;;;6184627;23;20015;-74
2023/08/19 12:33:36;;;;;;;11.73;9.00;;;32.20;99.90;;;;;;6184947;23;20080;-75
2023/08/19 12:36:02;;;;;;;10.95;9.10;;;32.20;99.90;;;;;;6184097;23;20032;-75
2023/08/19 12:38:27;;;;;;;9.80;8.73;;;32.30;99.90;;;;;;6184929;23;20001;-75
2023/08/19 12:40:53;;;;;;;10.07;9.07;;;32.30;99.90;;;;;;6184673;23;20384;-76
2023/08/19 12:43:19;;;;;;;10.75;9.73;;;32.40;99.90;;;;;;6184712;23;20005;-75